Time;durP1;ratioP1;P1;durP2;ratioP2;P2;SDS_P1;SDS_P2;PMS_P1;PMS_P2;Temp;Humidity;BMP_temperature;BMP_pressure;BME280_temperature;BME280_humidity;BME280_pressure;Samples;Min_cycle;Max_cycle;Signal;HPM_P1;HPM_P2
2022/07/23 00:00:52;;;;;;;4.47;1.92;;;22.10;99.90;;;;;;4937339;29;20027;-79
2022/07/23 00:03:18;;;;;;;8.52;2.38;;;22.00;99.90;;;;;;4943393;29;20102;-79
2022/07/23 00:05:43;;;;;;;7.00;2.22;;;22.10;99.90;;;;;;4956114;28;20027;-79
2022/07/23 00:08:09;;;;;;;5.63;1.88;;;22.00;99.90;;;;;;4956005;28;20035;-79
2022/07/23 00:10:35;;;;;;;5.35;2.35;;;22.00;99.90;;;;;;4948951;28;20046;-80
2022/07/23 00:13:01;;;;;;;7.65;2.55;;;21.90;99.90;;;;;;4936920;29;20436;-79
2022/07/23 00:15:26;;;;;;;8.82;2.47;;;21.90;99.90;;;;;;4937058;29;20036;-79
2022/07/23 00:17:52;;;;;;;6.65;2.13;;;21.90;99.90;;;;;;4936692;29;20031;-79
2022/07/23 00:20:18;;;;;;;9.65;2.85;;;21.90;99.90;;;;;;4935913;29;20024;-79
2022/07/23 00:22:52;;;;;;;7.53;2.40;;;21.80;99.90;;;;;;4936374;29;20024;-79
2022/07/23 00:25:19;;;;;;;8.70;2.20;;;22.00;99.90;;;;;;4942500;29;20031;-79
2022/07/23 00:27:45;;;;;;;6.43;2.35;;;22.00;99.90;;;;;;4938017;28;20403;-78
2022/07/23 00:30:12;;;;;;;6.15;2.10;;;21.90;99.90;;;;;;4955648;28;20030;-79
2022/07/23 00:32:52;;;;;;;8.02;2.17;;;21.90;99.90;;;;;;4955279;28;20625;-78
2022/07/23 00:35:22;;;;;;;9.13;2.57;;;21.90;99.90;;;;;;4955697;28;20026;-79
2022/07/23 00:37:48;;;;;;;23.30;4.07;;;21.90;99.90;;;;;;4955153;28;20031;-79
2022/07/23 00:40:14;;;;;;;14.00;3.53;;;21.90;99.90;;;;;;4955575;28;20371;-79
2022/07/23 00:42:40;;;;;;;14.15;3.28;;;21.90;99.90;;;;;;4955184;28;20042;-79
2022/07/23 00:45:06;;;;;;;14.65;3.47;;;21.80;99.90;;;;;;4955676;28;20102;-79
2022/07/23 00:47:32;;;;;;;12.02;3.17;;;21.70;99.90;;;;;;4937734;28;20034;-79
2022/07/23 00:49:58;;;;;;;8.13;2.35;;;21.60;99.90;;;;;;4955106;28;20024;-79
2022/07/23 00:52:24;;;;;;;8.23;2.80;;;21.50;99.90;;;;;;4954993;28;20042;-79
2022/07/23 00:54:50;;;;;;;7.13;2.33;;;21.30;99.90;;;;;;4955231;28;20031;-79
2022/07/23 00:57:16;;;;;;;6.05;2.42;;;21.40;99.90;;;;;;4955067;28;20028;-79
2022/07/23 00:59:42;;;;;;;6.32;2.63;;;21.20;99.90;;;;;;4954887;28;20050;-79
2022/07/23 01:02:08;;;;;;;9.18;3.50;;;21.20;99.90;;;;;;4955207;29;20020;-78
2022/07/23 01:04:34;;;;;;;10.25;2.85;;;21.20;99.90;;;;;;4954904;28;20587;-79
2022/07/23 01:07:00;;;;;;;10.35;3.03;;;21.10;99.90;;;;;;4954845;28;20655;-79
2022/07/23 01:09:26;;;;;;;7.55;3.13;;;21.00;99.90;;;;;;4953869;28;20027;-79
2022/07/23 01:11:54;;;;;;;6.35;3.28;;;21.00;99.90;;;;;;4955004;28;20027;-79
2022/07/23 01:14:20;;;;;;;9.23;2.85;;;20.70;99.90;;;;;;4954690;28;20368;-79
2022/07/23 01:16:48;;;;;;;7.50;2.95;;;20.80;99.90;;;;;;4954595;28;20067;-78
2022/07/23 01:19:15;;;;;;;12.40;3.53;;;20.90;99.90;;;;;;4953710;29;20113;-79
2022/07/23 01:21:46;;;;;;;6.97;2.72;;;20.80;99.90;;;;;;4943899;28;20035;-79
2022/07/23 01:24:12;;;;;;;11.15;3.17;;;20.90;99.90;;;;;;4946556;28;20479;-79
2022/07/23 01:26:39;;;;;;;9.02;3.17;;;20.80;99.90;;;;;;4954964;28;20038;-79
2022/07/23 01:29:05;;;;;;;7.53;2.70;;;20.90;99.90;;;;;;4954681;28;20028;-79
2022/07/23 01:31:31;;;;;;;10.52;3.10;;;20.90;99.90;;;;;;4954483;28;20023;-78
2022/07/23 01:33:57;;;;;;;7.32;3.17;;;20.90;99.90;;;;;;4954531;28;20023;-78
2022/07/23 01:36:23;;;;;;;7.75;3.17;;;20.90;99.90;;;;;;4954626;28;20058;-79
2022/07/23 01:38:50;;;;;;;12.43;3.17;;;20.80;99.90;;;;;;4954271;28;20034;-78
2022/07/23 01:41:16;;;;;;;9.82;3.00;;;20.70;99.90;;;;;;4954617;29;20031;-79
2022/07/23 01:43:42;;;;;;;13.38;3.22;;;20.50;99.90;;;;;;4935782;28;20020;-78
2022/07/23 01:46:08;;;;;;;16.45;3.05;;;20.50;99.90;;;;;;4935627;29;20110;-79
2022/07/23 01:48:33;;;;;;;6.75;2.72;;;20.80;99.90;;;;;;4934626;29;20095;-79
2022/07/23 01:50:59;;;;;;;8.25;3.10;;;20.80;99.90;;;;;;4935104;29;20035;-79
2022/07/23 01:53:25;;;;;;;7.93;3.10;;;20.90;99.90;;;;;;4935474;29;20759;-79
2022/07/23 01:55:50;;;;;;;10.93;3.10;;;20.80;99.90;;;;;;4933832;29;20028;-79
2022/07/23 01:58:16;;;;;;;6.60;2.67;;;20.80;99.90;;;;;;4935839;29;20020;-79
2022/07/23 02:00:41;;;;;;;13.27;3.33;;;20.80;99.90;;;;;;4935210;29;20774;-79
2022/07/23 02:03:07;;;;;;;8.00;2.90;;;20.90;99.90;;;;;;4935150;29;20530;-78
2022/07/23 02:05:33;;;;;;;8.15;3.10;;;20.80;99.90;;;;;;4935386;29;20024;-79
2022/07/23 02:07:59;;;;;;;7.45;3.00;;;20.80;99.90;;;;;;4935133;29;20099;-78
2022/07/23 02:10:26;;;;;;;9.95;2.88;;;20.80;99.90;;;;;;4935598;29;20027;-78
2022/07/23 02:12:53;;;;;;;7.65;3.17;;;20.70;99.90;;;;;;4952898;28;20026;-79
2022/07/23 02:15:18;;;;;;;10.15;2.97;;;20.80;99.90;;;;;;4954261;28;20031;-78
2022/07/23 02:17:44;;;;;;;10.68;3.13;;;20.80;99.90;;;;;;4954396;28;20026;-78
2022/07/23 02:20:11;;;;;;;7.35;2.63;;;20.70;99.90;;;;;;4954095;28;20026;-79
2022/07/23 02:22:37;;;;;;;11.27;3.28;;;20.70;99.90;;;;;;4954042;28;20438;-79
2022/07/23 02:25:04;;;;;;;14.05;3.65;;;20.80;99.90;;;;;;4954363;28;20027;-79
2022/07/23 02:27:30;;;;;;;9.25;3.13;;;20.70;99.90;;;;;;4954652;28;20024;-78
2022/07/23 02:29:57;;;;;;;9.68;3.38;;;20.70;99.90;;;;;;4954159;28;20038;-79
2022/07/23 02:32:23;;;;;;;9.23;3.03;;;20.80;99.90;;;;;;4954469;28;20127;-79
2022/07/23 02:34:49;;;;;;;11.07;3.00;;;20.80;99.90;;;;;;4952499;28;20471;-79
2022/07/23 02:37:15;;;;;;;8.23;3.10;;;20.80;99.90;;;;;;4934794;29;20071;-79
2022/07/23 02:39:40;;;;;;;11.13;3.08;;;20.70;99.90;;;;;;4947856;28;20031;-79
2022/07/23 02:42:06;;;;;;;8.93;2.97;;;20.70;99.90;;;;;;4949003;28;20024;-79
2022/07/23 02:44:32;;;;;;;12.50;3.35;;;20.70;99.90;;;;;;4957058;28;20031;-79
2022/07/23 02:46:57;;;;;;;8.35;2.47;;;20.70;99.90;;;;;;4957232;28;20055;-79
2022/07/23 02:49:23;;;;;;;7.53;2.50;;;20.70;99.90;;;;;;4957568;28;20472;-79
2022/07/23 02:51:48;;;;;;;10.48;3.03;;;20.60;99.90;;;;;;4956643;28;20081;-78
2022/07/23 02:54:14;;;;;;;7.72;3.10;;;20.70;99.90;;;;;;4958026;28;20102;-79
2022/07/23 02:56:40;;;;;;;8.88;3.33;;;20.70;99.90;;;;;;4956204;28;20620;-78
2022/07/23 02:59:05;;;;;;;9.02;2.70;;;20.60;99.90;;;;;;4957343;28;20028;-78
2022/07/23 03:01:31;;;;;;;9.60;2.80;;;20.60;99.90;;;;;;4957230;28;20383;-78
2022/07/23 03:03:57;;;;;;;8.00;2.95;;;20.60;99.90;;;;;;4956741;28;20059;-78
2022/07/23 03:06:22;;;;;;;13.20;3.55;;;20.60;99.90;;;;;;4957243;28;20043;-79
2022/07/23 03:08:48;;;;;;;9.20;3.40;;;20.50;99.90;;;;;;4957481;28;20416;-78
2022/07/23 03:11:14;;;;;;;8.20;3.15;;;20.50;99.90;;;;;;4950257;28;20035;-78
2022/07/23 03:13:41;;;;;;;14.68;3.67;;;20.50;99.90;;;;;;4938143;29;20107;-78
2022/07/23 03:16:07;;;;;;;8.48;2.97;;;20.50;99.90;;;;;;4937631;29;20075;-79
2022/07/23 03:18:33;;;;;;;7.88;3.08;;;20.50;99.90;;;;;;4940936;29;20614;-78
2022/07/23 03:20:59;;;;;;;7.88;2.97;;;20.50;99.90;;;;;;4956913;28;20083;-78
2022/07/23 03:23:25;;;;;;;10.45;3.00;;;20.50;99.90;;;;;;4957214;28;20035;-79
2022/07/23 03:25:51;;;;;;;12.57;3.08;;;20.50;99.90;;;;;;4956905;28;20038;-79
2022/07/23 03:28:18;;;;;;;5.78;3.13;;;20.50;99.90;;;;;;4955591;28;20035;-79
2022/07/23 03:30:48;;;;;;;6.85;2.40;;;20.40;99.90;;;;;;4956823;28;20059;-78
2022/07/23 03:33:16;;;;;;;10.82;2.88;;;20.30;99.90;;;;;;4956746;28;20023;-79
2022/07/23 03:35:45;;;;;;;8.10;3.20;;;20.30;99.90;;;;;;4957026;28;20100;-79
2022/07/23 03:38:11;;;;;;;6.88;3.20;;;20.40;99.90;;;;;;4956567;28;20437;-79
2022/07/23 03:40:37;;;;;;;11.20;3.22;;;20.40;99.90;;;;;;4956706;28;20051;-79
2022/07/23 03:43:03;;;;;;;13.48;3.50;;;20.30;99.90;;;;;;4955215;28;20054;-80
2022/07/23 03:45:28;;;;;;;8.75;3.00;;;20.30;99.90;;;;;;4956188;28;20094;-81
2022/07/23 03:47:54;;;;;;;6.82;2.80;;;20.30;99.90;;;;;;4956024;28;20034;-81
2022/07/23 03:50:20;;;;;;;11.93;3.60;;;20.40;99.90;;;;;;4956092;28;20054;-81
2022/07/23 03:52:46;;;;;;;7.13;2.85;;;20.30;99.90;;;;;;4956477;28;20027;-81
2022/07/23 03:55:12;;;;;;;12.45;3.22;;;20.30;99.90;;;;;;4955207;28;20032;-80
2022/07/23 03:57:37;;;;;;;12.88;3.00;;;20.40;99.90;;;;;;4956441;28;20507;-81
2022/07/23 04:00:06;;;;;;;11.07;3.80;;;20.30;99.90;;;;;;4954342;28;20028;-81
2022/07/23 04:02:32;;;;;;;6.78;2.88;;;20.20;99.90;;;;;;4955969;28;20023;-81
2022/07/23 04:04:59;;;;;;;13.65;3.72;;;20.20;99.90;;;;;;4956127;28;20034;-81
2022/07/23 04:07:24;;;;;;;10.43;3.10;;;20.30;99.90;;;;;;4955715;28;20078;-81
2022/07/23 04:09:50;;;;;;;7.70;3.92;;;20.20;99.90;;;;;;4955967;28;20031;-81
2022/07/23 04:12:16;;;;;;;12.77;4.28;;;20.20;99.90;;;;;;4954531;28;20063;-81
2022/07/23 04:14:42;;;;;;;8.40;3.05;;;20.20;99.90;;;;;;4954456;28;20027;-81
2022/07/23 04:17:07;;;;;;;12.55;3.78;;;20.30;99.90;;;;;;4936607;29;20479;-81
2022/07/23 04:19:33;;;;;;;10.05;3.88;;;20.20;99.90;;;;;;4936287;29;20063;-81
2022/07/23 04:21:59;;;;;;;7.07;3.40;;;20.20;99.90;;;;;;4936509;29;20027;-81
2022/07/23 04:24:24;;;;;;;10.68;3.35;;;20.20;99.90;;;;;;4936472;29;20020;-81
2022/07/23 04:26:50;;;;;;;13.07;4.68;;;20.20;99.90;;;;;;4936751;29;20027;-81
2022/07/23 04:29:16;;;;;;;15.32;4.00;;;20.20;99.90;;;;;;4934807;29;20034;-81
2022/07/23 04:31:41;;;;;;;12.65;4.05;;;20.10;99.90;;;;;;4935123;29;20034;-81
2022/07/23 04:34:07;;;;;;;9.38;3.72;;;20.10;99.90;;;;;;4936365;29;20027;-81
2022/07/23 04:36:32;;;;;;;12.23;4.30;;;20.00;99.90;;;;;;4939644;29;20399;-81
2022/07/23 04:38:58;;;;;;;10.00;3.90;;;20.10;99.90;;;;;;4954195;29;20046;-81
2022/07/23 04:41:24;;;;;;;9.80;3.72;;;20.10;99.90;;;;;;4955169;28;20480;-81
2022/07/23 04:43:49;;;;;;;16.25;3.88;;;20.10;99.90;;;;;;4953751;28;20535;-80
2022/07/23 04:46:15;;;;;;;11.45;3.78;;;20.10;99.90;;;;;;4954310;28;20035;-80
2022/07/23 04:48:42;;;;;;;8.63;3.88;;;20.10;99.90;;;;;;4953624;28;20035;-80
2022/07/23 04:51:07;;;;;;;13.35;4.22;;;20.10;99.90;;;;;;4955163;28;20035;-80
2022/07/23 04:53:33;;;;;;;12.45;3.42;;;20.10;99.90;;;;;;4955249;28;20070;-80
2022/07/23 04:55:59;;;;;;;14.80;4.28;;;20.10;99.90;;;;;;4955132;28;20439;-80
2022/07/23 04:58:24;;;;;;;8.60;3.70;;;20.10;99.90;;;;;;4954800;28;20082;-80
2022/07/23 05:00:50;;;;;;;13.68;3.60;;;20.10;99.90;;;;;;4947674;28;20399;-81
2022/07/23 05:03:16;;;;;;;13.57;3.40;;;20.00;99.90;;;;;;4952481;28;20051;-81
2022/07/23 05:05:41;;;;;;;15.45;4.15;;;20.10;99.90;;;;;;4954602;28;20031;-80
2022/07/23 05:08:07;;;;;;;11.77;3.95;;;20.10;99.90;;;;;;4954820;28;20395;-80
2022/07/23 05:10:33;;;;;;;10.00;3.40;;;20.20;99.90;;;;;;4955005;28;20027;-80
2022/07/23 05:12:58;;;;;;;8.15;3.42;;;20.10;99.90;;;;;;4947577;28;20063;-80
2022/07/23 05:15:24;;;;;;;13.38;3.80;;;20.20;99.90;;;;;;4934294;29;20091;-80
2022/07/23 05:17:50;;;;;;;11.48;3.95;;;20.20;99.90;;;;;;4936004;29;20020;-80
2022/07/23 05:20:15;;;;;;;11.30;3.90;;;20.30;99.90;;;;;;4935526;29;20469;-80
2022/07/23 05:22:41;;;;;;;12.45;4.18;;;20.20;99.90;;;;;;4935603;29;20024;-80
2022/07/23 05:25:08;;;;;;;13.23;4.50;;;20.20;99.90;;;;;;4935689;29;20118;-80
2022/07/23 05:27:33;;;;;;;10.30;4.32;;;20.10;99.90;;;;;;4934983;29;20039;-80
2022/07/23 05:29:59;;;;;;;13.27;3.85;;;20.10;99.90;;;;;;4934422;29;20492;-80
2022/07/23 05:32:25;;;;;;;13.07;4.30;;;20.10;99.90;;;;;;4935500;29;20484;-80
2022/07/23 05:34:51;;;;;;;11.02;3.70;;;20.00;99.90;;;;;;4935659;29;20035;-80
2022/07/23 05:37:17;;;;;;;9.20;4.22;;;20.10;99.90;;;;;;4937536;28;20110;-80
2022/07/23 05:39:42;;;;;;;12.50;3.97;;;20.00;99.90;;;;;;4954356;28;20479;-81
2022/07/23 05:42:08;;;;;;;12.70;3.78;;;20.10;99.90;;;;;;4953519;28;20023;-81
2022/07/23 05:44:34;;;;;;;10.52;3.88;;;20.00;99.90;;;;;;4953469;28;20391;-81
2022/07/23 05:47:00;;;;;;;9.98;3.28;;;20.10;99.90;;;;;;4935516;29;20625;-81
2022/07/23 05:49:25;;;;;;;11.40;3.53;;;20.00;99.90;;;;;;4935496;29;20115;-81
2022/07/23 05:51:51;;;;;;;10.57;3.40;;;20.00;99.90;;;;;;4935169;29;20016;-81
2022/07/23 05:54:17;;;;;;;15.02;4.25;;;20.00;99.90;;;;;;4935169;29;20395;-81
2022/07/23 05:56:43;;;;;;;8.60;3.55;;;20.10;99.90;;;;;;4952337;28;20451;-81
2022/07/23 05:59:09;;;;;;;12.65;4.35;;;20.10;99.90;;;;;;4953064;28;20493;-81
2022/07/23 06:01:34;;;;;;;10.75;3.53;;;20.10;99.90;;;;;;4953350;28;20415;-81
2022/07/23 06:04:00;;;;;;;14.80;4.03;;;20.20;99.90;;;;;;4953976;28;20090;-81
2022/07/23 06:06:26;;;;;;;10.65;4.18;;;20.30;99.90;;;;;;4952830;28;20027;-81
2022/07/23 06:08:51;;;;;;;9.93;3.65;;;20.30;99.90;;;;;;4954437;28;20038;-81
2022/07/23 06:11:17;;;;;;;12.73;4.22;;;20.40;99.90;;;;;;4954215;28;20027;-81
2022/07/23 06:13:42;;;;;;;14.85;3.63;;;20.50;99.90;;;;;;4954447;28;20395;-81
2022/07/23 06:16:08;;;;;;;9.82;3.55;;;20.60;99.90;;;;;;4954308;28;20031;-81
2022/07/23 06:18:34;;;;;;;11.60;3.20;;;20.70;99.90;;;;;;4957300;28;20030;-80
2022/07/23 06:21:00;;;;;;;11.75;3.67;;;20.70;99.90;;;;;;4957994;28;20034;-80
2022/07/23 06:23:26;;;;;;;12.00;3.55;;;20.60;99.90;;;;;;4957860;28;20027;-81
2022/07/23 06:25:52;;;;;;;9.35;3.05;;;20.60;99.90;;;;;;4957720;28;20030;-81
2022/07/23 06:28:17;;;;;;;9.95;2.88;;;20.50;99.90;;;;;;4952945;28;20042;-76
2022/07/23 06:30:43;;;;;;;8.77;3.15;;;20.50;99.90;;;;;;4951906;28;20081;-76
2022/07/23 06:33:09;;;;;;;8.18;2.70;;;20.50;99.90;;;;;;4948730;28;20427;-76
2022/07/23 06:35:35;;;;;;;6.85;3.08;;;20.60;99.90;;;;;;4946435;28;20065;-76
2022/07/23 06:38:00;;;;;;;11.38;2.92;;;20.60;99.90;;;;;;4946252;28;20063;-75
2022/07/23 06:40:26;;;;;;;6.10;2.60;;;20.50;99.90;;;;;;4947467;28;20106;-76
2022/07/23 06:42:52;;;;;;;11.60;3.30;;;20.50;99.90;;;;;;4952941;29;20038;-76
2022/07/23 06:45:18;;;;;;;8.05;2.63;;;20.50;99.90;;;;;;4953717;29;20030;-78
2022/07/23 06:47:43;;;;;;;7.28;2.80;;;20.40;99.90;;;;;;4953706;28;20035;-80
2022/07/23 06:50:10;;;;;;;9.25;3.13;;;20.50;99.90;;;;;;4948136;28;20051;-82
2022/07/23 06:52:36;;;;;;;10.05;2.63;;;20.50;99.90;;;;;;4957144;28;20027;-79
2022/07/23 06:55:01;;;;;;;10.25;2.63;;;20.60;99.90;;;;;;4946508;28;20432;-78
2022/07/23 06:57:27;;;;;;;8.85;2.85;;;20.60;99.90;;;;;;4946285;29;20035;-83
2022/07/23 06:59:53;;;;;;;7.93;2.90;;;20.70;99.90;;;;;;4949005;28;20074;-82
2022/07/23 07:02:19;;;;;;;6.10;2.95;;;20.80;99.90;;;;;;4948973;28;20031;-79
2022/07/23 07:04:45;;;;;;;8.73;2.55;;;20.90;99.90;;;;;;4946517;29;20043;-79
2022/07/23 07:07:11;;;;;;;8.27;2.53;;;21.00;99.90;;;;;;4942619;28;20503;-83
2022/07/23 07:09:37;;;;;;;7.20;2.83;;;21.10;99.90;;;;;;4940265;29;20032;-79
2022/07/23 07:12:03;;;;;;;11.70;2.70;;;21.20;99.90;;;;;;4943800;28;20027;-79
2022/07/23 07:14:29;;;;;;;10.00;2.58;;;21.20;99.90;;;;;;4950284;29;20059;-78
2022/07/23 07:16:55;;;;;;;8.90;3.45;;;21.20;99.90;;;;;;4938245;29;20043;-78
2022/07/23 07:19:21;;;;;;;8.38;2.75;;;21.20;99.90;;;;;;4937716;29;20472;-81
2022/07/23 07:21:46;;;;;;;9.82;2.47;;;21.30;99.90;;;;;;4937285;29;20083;-78
2022/07/23 07:24:12;;;;;;;11.45;3.15;;;21.40;99.90;;;;;;4949634;28;20023;-81
2022/07/23 07:26:39;;;;;;;11.75;2.78;;;21.40;99.90;;;;;;4938967;28;20484;-76
2022/07/23 07:29:05;;;;;;;10.35;3.20;;;21.60;99.90;;;;;;4952421;28;20030;-76
2022/07/23 07:31:30;;;;;;;11.32;2.95;;;21.50;99.90;;;;;;4937511;29;20425;-75
2022/07/23 07:33:56;;;;;;;12.77;2.88;;;21.50;99.90;;;;;;4954041;28;20102;-77
2022/07/23 07:36:22;;;;;;;12.93;2.80;;;21.50;99.90;;;;;;4956457;28;20054;-76
2022/07/23 07:38:48;;;;;;;13.73;2.83;;;21.60;99.90;;;;;;4956058;28;20061;-76
2022/07/23 07:41:14;;;;;;;5.18;2.47;;;21.70;99.90;;;;;;4940743;28;20047;-76
2022/07/23 07:43:41;;;;;;;8.70;2.50;;;21.80;99.90;;;;;;4937317;29;20024;-82
2022/07/23 07:46:09;;;;;;;10.80;2.95;;;21.90;99.90;;;;;;4942522;29;20492;-82
2022/07/23 10:31:06;;;;;;;13.88;2.00;;;24.90;94.90;;;;;;4974661;23;20063;-79
2022/07/23 10:33:50;;;;;;;4.80;1.80;;;25.10;94.20;;;;;;4924503;29;20075;-83
2022/07/23 10:36:32;;;;;;;5.90;1.58;;;25.10;93.70;;;;;;4924311;29;20039;-81
2022/07/23 10:39:05;;;;;;;4.85;1.55;;;25.10;94.30;;;;;;4908380;29;20179;-80
2022/07/23 10:41:39;;;;;;;5.75;1.48;;;25.10;94.50;;;;;;4923192;29;20035;-77
2022/07/23 10:44:07;;;;;;;4.72;1.50;;;25.20;93.70;;;;;;4921712;29;20028;-80
2022/07/23 10:46:52;;;;;;;6.50;1.85;;;25.70;93.00;;;;;;4921008;29;20499;-80
2022/07/23 10:49:28;;;;;;;4.68;1.20;;;26.50;91.40;;;;;;4905171;29;20420;-85
2022/07/23 10:52:23;;;;;;;7.88;1.90;;;26.80;90.80;;;;;;4904026;29;20024;-81
2022/07/23 10:54:52;;;;;;;3.60;1.20;;;26.60;91.30;;;;;;4916064;29;20031;-80
2022/07/23 10:57:26;;;;;;;2.75;1.30;;;26.20;91.60;;;;;;4926315;29;20087;-81
2022/07/23 11:00:01;;;;;;;4.55;1.60;;;26.20;91.40;;;;;;4900557;29;20111;-79
2022/07/23 11:02:29;;;;;;;8.50;1.67;;;26.00;92.10;;;;;;4904190;29;20080;-80
2022/07/23 11:05:00;;;;;;;9.98;1.55;;;25.90;92.30;;;;;;4901965;29;20492;-79
2022/07/23 11:07:26;;;;;;;2.78;1.45;;;25.50;92.60;;;;;;4930918;29;20518;-79
2022/07/23 11:09:53;;;;;;;3.83;1.30;;;25.40;94.60;;;;;;4930761;29;20024;-80
2022/07/23 11:12:28;;;;;;;4.28;1.20;;;26.20;92.50;;;;;;4905725;29;20031;-87
2022/07/23 11:15:10;;;;;;;4.82;1.40;;;26.70;91.10;;;;;;4905214;29;20040;-81
2022/07/23 11:17:45;;;;;;;5.05;1.38;;;26.90;89.50;;;;;;4927200;29;20391;-81
2022/07/23 11:20:15;;;;;;;4.20;1.35;;;27.10;87.20;;;;;;4921635;29;20020;-78
2022/07/23 11:22:43;;;;;;;6.25;1.45;;;27.40;87.00;;;;;;4927775;29;20568;-80
2022/07/23 11:25:29;;;;;;;3.58;1.23;;;27.20;88.70;;;;;;4907603;29;20032;-81
2022/07/23 11:28:07;;;;;;;2.35;1.00;;;26.60;90.10;;;;;;4918527;29;20486;-78
2022/07/23 11:30:33;;;;;;;3.53;1.50;;;26.40;90.80;;;;;;4912001;29;20048;-80
2022/07/23 11:33:08;;;;;;;3.25;1.40;;;26.10;92.20;;;;;;4918987;29;20039;-77
2022/07/23 11:35:35;;;;;;;3.25;1.30;;;27.20;90.80;;;;;;4918295;29;20028;-77
2022/07/23 11:38:13;;;;;;;3.10;1.40;;;27.90;87.20;;;;;;4917139;29;20030;-79
2022/07/23 11:40:39;;;;;;;8.63;1.40;;;28.00;83.30;;;;;;4918704;29;20137;-80
2022/07/23 11:43:10;;;;;;;3.35;1.10;;;27.20;86.40;;;;;;4918546;29;20567;-78
2022/07/23 11:45:37;;;;;;;3.30;1.20;;;26.70;88.00;;;;;;4923299;29;20496;-78
2022/07/23 11:48:05;;;;;;;5.07;1.30;;;26.60;89.90;;;;;;4919168;29;20034;-78
2022/07/23 11:50:31;;;;;;;2.75;1.00;;;26.80;90.20;;;;;;4923500;29;20499;-78
2022/07/23 11:52:57;;;;;;;3.08;1.25;;;27.30;84.70;;;;;;4923957;29;20107;-78
2022/07/23 11:55:23;;;;;;;4.97;1.20;;;27.60;83.30;;;;;;4918122;29;20434;-78
2022/07/23 11:57:51;;;;;;;4.63;1.30;;;27.30;85.60;;;;;;4922572;29;20024;-77
2022/07/23 12:00:19;;;;;;;7.93;1.38;;;27.90;82.10;;;;;;4927597;29;20138;-79
2022/07/23 12:02:51;;;;;;;1.95;1.00;;;28.20;81.00;;;;;;4927125;29;20055;-79
2022/07/23 12:05:20;;;;;;;4.88;1.70;;;28.10;79.30;;;;;;4913567;29;20056;-79
2022/07/23 12:07:51;;;;;;;5.30;1.33;;;27.70;80.60;;;;;;4931866;29;20067;-78
2022/07/23 12:10:27;;;;;;;2.95;1.23;;;27.00;85.50;;;;;;4910125;29;20118;-77
2022/07/23 12:12:54;;;;;;;7.47;1.30;;;27.10;87.50;;;;;;4917328;29;20032;-78
2022/07/23 12:15:31;;;;;;;6.30;1.45;;;27.40;86.80;;;;;;4928827;29;20054;-79
2022/07/23 12:17:57;;;;;;;6.55;1.40;;;27.60;85.30;;;;;;4924635;29;20024;-79
2022/07/23 12:20:26;;;;;;;5.40;1.40;;;27.90;81.10;;;;;;4929618;29;20020;-79
2022/07/23 12:22:59;;;;;;;4.90;1.33;;;28.20;79.40;;;;;;4909912;29;20675;-79
2022/07/23 12:25:27;;;;;;;5.68;1.63;;;28.20;79.30;;;;;;4922626;29;20067;-78
2022/07/23 12:28:07;;;;;;;4.93;1.75;;;28.50;78.40;;;;;;4924499;29;20028;-79
2022/07/23 12:30:34;;;;;;;4.38;1.55;;;29.10;75.70;;;;;;4921192;29;20135;-79
2022/07/23 12:33:01;;;;;;;4.78;1.38;;;29.20;74.00;;;;;;4930150;29;20091;-78
2022/07/23 12:35:33;;;;;;;6.32;1.60;;;28.70;74.40;;;;;;4923467;29;20043;-78
2022/07/23 12:38:02;;;;;;;3.60;1.73;;;28.90;77.30;;;;;;4926072;29;20028;-78
2022/07/23 12:40:41;;;;;;;4.80;1.70;;;29.20;73.00;;;;;;4929884;29;20016;-78
2022/07/23 12:43:10;;;;;;;8.30;1.98;;;29.20;73.00;;;;;;4897376;29;20024;-78
2022/07/23 12:46:02;;;;;;;5.20;1.42;;;29.30;72.20;;;;;;4928882;29;20024;-77
2022/07/23 12:48:36;;;;;;;5.47;1.60;;;29.20;71.70;;;;;;4921072;29;20094;-80
2022/07/23 12:51:28;;;;;;;5.03;1.55;;;28.90;69.50;;;;;;4910510;29;20122;-79
2022/07/23 12:53:57;;;;;;;4.95;1.58;;;28.90;69.70;;;;;;4915758;29;20108;-79
2022/07/23 12:56:31;;;;;;;6.68;2.33;;;29.40;70.80;;;;;;4904264;29;20032;-80
2022/07/23 12:59:05;;;;;;;5.53;1.85;;;29.90;68.40;;;;;;4914860;29;20511;-78
2022/07/23 13:01:33;;;;;;;3.95;1.70;;;29.60;67.90;;;;;;4918395;29;20016;-79
2022/07/23 13:04:22;;;;;;;3.63;1.85;;;29.30;69.00;;;;;;4917657;29;20120;-79
2022/07/23 13:06:52;;;;;;;3.72;1.75;;;29.50;68.00;;;;;;4906134;29;20456;-79
2022/07/23 13:09:21;;;;;;;5.88;1.70;;;29.60;68.70;;;;;;4920373;29;20031;-79
2022/07/23 13:11:48;;;;;;;4.90;1.90;;;29.40;67.10;;;;;;4900510;29;20443;-80
2022/07/23 13:14:15;;;;;;;6.20;1.98;;;29.40;68.50;;;;;;4916790;29;20028;-79
2022/07/23 13:16:42;;;;;;;5.55;1.90;;;29.50;68.30;;;;;;4916087;29;20063;-78
2022/07/23 13:19:08;;;;;;;4.30;1.90;;;29.50;69.40;;;;;;4914766;29;20020;-82
2022/07/23 13:21:34;;;;;;;7.75;1.98;;;29.50;67.30;;;;;;4917620;29;20023;-80
2022/07/23 13:24:00;;;;;;;5.57;1.83;;;29.10;68.00;;;;;;4916927;29;20465;-78
2022/07/23 13:26:26;;;;;;;4.22;2.00;;;29.50;67.80;;;;;;4916794;29;20111;-78
2022/07/23 13:28:54;;;;;;;5.55;1.88;;;29.50;66.10;;;;;;4918019;29;20052;-78
2022/07/23 13:31:20;;;;;;;5.65;1.60;;;29.70;66.70;;;;;;4922626;29;20115;-82
2022/07/23 13:33:46;;;;;;;5.15;2.00;;;29.70;67.30;;;;;;4919740;29;20508;-81
2022/07/23 13:36:14;;;;;;;6.03;1.90;;;30.00;66.20;;;;;;4905477;29;20044;-81
2022/07/23 13:38:39;;;;;;;3.65;1.85;;;29.60;65.50;;;;;;4904109;29;20023;-81
2022/07/23 13:41:05;;;;;;;5.47;1.65;;;29.30;64.70;;;;;;4906298;29;20028;-81
2022/07/23 13:43:32;;;;;;;6.82;1.90;;;29.50;64.50;;;;;;4931536;29;20392;-81
2022/07/23 13:45:58;;;;;;;3.25;1.75;;;29.70;64.70;;;;;;4919133;29;20032;-81
2022/07/23 13:48:23;;;;;;;6.50;1.88;;;29.60;65.40;;;;;;4935216;29;20110;-81
2022/07/23 13:50:50;;;;;;;8.95;2.33;;;30.00;64.10;;;;;;4925038;29;20111;-81
2022/07/23 13:53:21;;;;;;;5.20;1.80;;;29.80;63.40;;;;;;4928892;29;20055;-81
2022/07/23 13:55:48;;;;;;;6.70;1.87;;;29.90;63.20;;;;;;4914118;29;20467;-81
2022/07/23 13:58:13;;;;;;;4.57;2.25;;;29.60;63.20;;;;;;4908503;29;20072;-81
2022/07/23 14:00:43;;;;;;;4.35;1.90;;;29.50;63.50;;;;;;4924092;29;20020;-81
2022/07/23 14:03:09;;;;;;;6.00;1.85;;;29.80;63.80;;;;;;4922806;29;20036;-81
2022/07/23 14:05:35;;;;;;;5.63;1.90;;;30.00;61.00;;;;;;4930681;29;20373;-81
2022/07/23 14:08:01;;;;;;;7.28;2.40;;;29.90;62.50;;;;;;4898819;29;20123;-81
2022/07/23 14:10:26;;;;;;;5.28;2.00;;;29.90;60.80;;;;;;4923609;29;20033;-81
2022/07/23 14:12:55;;;;;;;6.80;2.15;;;30.00;61.20;;;;;;4925498;29;20036;-81
2022/07/23 14:15:22;;;;;;;6.03;2.28;;;29.90;61.50;;;;;;4921452;29;20727;-81
2022/07/23 14:17:47;;;;;;;4.93;2.15;;;29.90;59.30;;;;;;4917445;29;20476;-81
2022/07/23 14:20:14;;;;;;;5.07;2.00;;;29.80;59.30;;;;;;4934700;29;20028;-81
2022/07/23 14:22:40;;;;;;;6.20;2.05;;;29.70;58.30;;;;;;4926811;29;20440;-81
2022/07/23 14:25:07;;;;;;;5.65;2.35;;;29.40;59.10;;;;;;4926768;29;20024;-81
2022/07/23 14:27:33;;;;;;;11.38;2.60;;;29.60;59.20;;;;;;4919609;29;20480;-82
2022/07/23 14:29:59;;;;;;;7.57;2.10;;;29.60;56.90;;;;;;4925867;29;20051;-81
2022/07/23 14:32:25;;;;;;;10.10;2.60;;;29.70;56.40;;;;;;4909268;29;20032;-82
2022/07/23 14:34:51;;;;;;;7.85;2.30;;;30.00;57.50;;;;;;4927833;29;20047;-82
2022/07/23 14:37:18;;;;;;;6.72;2.10;;;30.10;56.90;;;;;;4919110;29;20036;-82
2022/07/23 14:39:44;;;;;;;8.05;2.42;;;29.80;56.10;;;;;;4924904;29;20024;-82
2022/07/23 14:42:10;;;;;;;5.63;2.33;;;29.70;57.10;;;;;;4910217;29;20398;-81
2022/07/23 14:44:36;;;;;;;8.45;2.40;;;29.70;56.60;;;;;;4920299;29;20044;-82
2022/07/23 14:47:04;;;;;;;6.40;2.20;;;29.80;55.60;;;;;;4927692;29;20156;-81
2022/07/23 14:49:31;;;;;;;5.30;2.53;;;30.00;55.00;;;;;;4925772;29;20032;-82
2022/07/23 14:51:57;;;;;;;8.07;2.30;;;30.00;54.60;;;;;;4915444;29;20031;-81
2022/07/23 14:54:25;;;;;;;4.38;2.10;;;30.00;53.30;;;;;;4929982;29;20027;-81
2022/07/23 14:56:51;;;;;;;6.80;2.42;;;29.70;54.60;;;;;;4927330;29;20028;-82
2022/07/23 14:59:17;;;;;;;6.32;1.92;;;29.90;53.90;;;;;;4907128;29;20353;-82
2022/07/23 15:01:43;;;;;;;6.82;2.13;;;29.70;54.30;;;;;;4929745;29;20106;-82
2022/07/23 15:04:08;;;;;;;5.82;2.20;;;29.70;54.90;;;;;;4926543;29;20099;-82
2022/07/23 15:06:34;;;;;;;8.25;2.25;;;29.60;55.10;;;;;;4930573;29;20020;-82
2022/07/23 15:09:00;;;;;;;9.18;2.45;;;29.70;55.20;;;;;;4921676;29;20028;-82
2022/07/23 15:11:32;;;;;;;5.57;2.40;;;29.70;54.10;;;;;;4928711;29;20432;-82
2022/07/23 15:13:58;;;;;;;6.90;2.45;;;29.80;54.70;;;;;;4905842;29;20032;-82
2022/07/23 15:16:24;;;;;;;7.07;2.33;;;30.10;54.10;;;;;;4908159;29;20042;-82
2022/07/23 15:18:49;;;;;;;4.93;2.30;;;30.00;53.40;;;;;;4919644;29;20029;-82
2022/07/23 15:21:15;;;;;;;4.53;2.05;;;29.90;52.90;;;;;;4934852;29;20055;-81
2022/07/23 15:23:41;;;;;;;8.25;2.22;;;30.10;54.20;;;;;;4930967;29;20012;-82
2022/07/23 15:26:07;;;;;;;5.32;2.05;;;30.10;53.60;;;;;;4927877;29;20027;-81